createdAt,value
2018-06-20T00:01:03.542Z,24.28
2018-06-20T00:03:32.228Z,24.27
2018-06-20T00:06:00.912Z,24.26
2018-06-20T00:08:29.693Z,24.26
2018-06-20T00:10:58.553Z,24.24
2018-06-20T00:13:27.281Z,24.24
2018-06-20T00:15:56.006Z,24.23
2018-06-20T00:18:24.704Z,24.21
2018-06-20T00:20:53.280Z,24.22
2018-06-20T00:23:21.867Z,24.21
2018-06-20T00:25:50.449Z,24.19
2018-06-20T00:28:19.316Z,24.18
2018-06-20T00:30:47.829Z,24.16
2018-06-20T00:33:16.401Z,24.15
2018-06-20T00:35:44.991Z,24.16
2018-06-20T00:38:13.544Z,24.14
2018-06-20T00:40:42.156Z,24.13
2018-06-20T00:43:10.696Z,24.12
2018-06-20T00:45:39.314Z,24.11
2018-06-20T00:48:07.810Z,24.11
2018-06-20T00:50:36.522Z,24.10
2018-06-20T00:53:05.083Z,24.09
2018-06-20T00:55:44.489Z,24.09
2018-06-20T00:58:12.987Z,24.08
2018-06-20T01:00:41.598Z,24.07
2018-06-20T01:03:10.419Z,24.06
2018-06-20T01:05:38.936Z,24.06
2018-06-20T01:08:07.471Z,24.04
2018-06-20T01:10:36.162Z,24.05
2018-06-20T01:13:04.694Z,24.05
2018-06-20T01:15:33.301Z,24.04
2018-06-20T01:18:01.811Z,24.03
2018-06-20T01:20:30.351Z,24.04
2018-06-20T01:22:58.812Z,24.00
2018-06-20T01:25:27.396Z,23.99
2018-06-20T01:27:55.956Z,23.98
2018-06-20T01:30:24.550Z,23.98
2018-06-20T01:32:53.034Z,23.98
2018-06-20T01:35:21.515Z,23.97
2018-06-20T01:37:50.142Z,23.95
2018-06-20T01:40:18.761Z,23.94
2018-06-20T01:42:47.334Z,23.91
2018-06-20T01:45:15.945Z,23.88
2018-06-20T01:47:44.417Z,23.85
2018-06-20T01:50:12.930Z,23.83
2018-06-20T01:52:41.446Z,23.82
2018-06-20T01:55:10.017Z,23.78
2018-06-20T01:57:38.508Z,23.75
2018-06-20T02:00:07.082Z,23.73
2018-06-20T02:02:35.582Z,23.74
2018-06-20T02:05:04.154Z,23.74
2018-06-20T02:07:32.720Z,23.74
2018-06-20T02:10:01.215Z,23.71
2018-06-20T02:12:29.724Z,23.72
2018-06-20T02:14:58.250Z,23.72
2018-06-20T02:17:26.771Z,23.74
2018-06-20T02:19:55.270Z,23.75
2018-06-20T02:22:23.815Z,23.77
2018-06-20T02:24:52.403Z,23.78
2018-06-20T02:27:21.006Z,23.79
2018-06-20T02:29:49.529Z,23.81
2018-06-20T02:32:18.189Z,23.80
2018-06-20T02:34:46.796Z,23.82
2018-06-20T02:37:15.320Z,23.81
2018-06-20T02:39:43.946Z,23.81
2018-06-20T02:42:12.506Z,23.81
2018-06-20T02:44:41.074Z,23.81
2018-06-20T02:47:09.699Z,23.81
2018-06-20T02:49:38.578Z,23.78
2018-06-20T02:52:07.240Z,23.78
2018-06-20T02:54:35.777Z,23.79
2018-06-20T02:57:04.322Z,23.79
2018-06-20T02:59:32.871Z,23.82
2018-06-20T03:02:01.453Z,23.82
2018-06-20T03:04:30.118Z,23.82
2018-06-20T03:06:58.677Z,23.81
2018-06-20T03:09:32.294Z,23.82
2018-06-20T03:12:01.732Z,23.81
2018-06-20T03:14:30.470Z,23.82
2018-06-20T03:16:59.430Z,23.81
2018-06-20T03:19:29.321Z,23.80
2018-06-20T03:21:58.147Z,23.78
2018-06-20T03:24:26.601Z,23.79
2018-06-20T03:26:55.126Z,23.79
2018-06-20T03:29:23.656Z,23.79
2018-06-20T03:31:52.193Z,23.80
2018-06-20T03:34:20.866Z,23.79
2018-06-20T03:36:49.377Z,23.80
2018-06-20T03:39:17.826Z,23.79
2018-06-20T03:41:47.227Z,23.79
2018-06-20T03:44:15.724Z,23.80
2018-06-20T03:46:44.239Z,23.81
2018-06-20T03:49:12.754Z,23.81
2018-06-20T03:51:41.275Z,23.80
2018-06-20T03:54:09.756Z,23.82
2018-06-20T03:56:38.603Z,23.81
2018-06-20T03:59:07.093Z,23.83
2018-06-20T04:01:35.665Z,23.85
2018-06-20T04:04:04.113Z,23.88
2018-06-20T04:06:32.532Z,23.21
2018-06-20T04:09:01.047Z,23.93
2018-06-20T04:11:29.550Z,23.94
2018-06-20T04:13:58.069Z,23.98
2018-06-20T04:16:26.611Z,24.00
2018-06-20T04:18:55.105Z,24.02
2018-06-20T04:21:23.601Z,24.05
2018-06-20T04:23:52.065Z,24.05
2018-06-20T04:26:20.553Z,24.06
2018-06-20T04:28:49.072Z,24.08
2018-06-20T04:31:17.579Z,24.08
2018-06-20T04:33:46.170Z,24.07
2018-06-20T04:36:14.688Z,24.08
2018-06-20T04:38:43.185Z,24.11
2018-06-20T04:41:11.672Z,24.14
2018-06-20T04:43:40.202Z,24.15
2018-06-20T04:46:08.635Z,24.15
2018-06-20T04:48:37.243Z,24.20
2018-06-20T04:51:05.718Z,24.23
2018-06-20T04:53:34.238Z,24.29
2018-06-20T04:56:02.737Z,24.33
2018-06-20T04:58:31.230Z,24.37
2018-06-20T05:00:59.974Z,24.44
2018-06-20T05:03:28.528Z,24.49
2018-06-20T05:05:57.057Z,24.53
2018-06-20T05:08:25.519Z,24.58
2018-06-20T05:10:54.028Z,24.64
2018-06-20T05:13:22.568Z,24.68
2018-06-20T05:15:51.177Z,24.76
2018-06-20T05:18:19.710Z,24.79
2018-06-20T05:20:48.224Z,24.84
2018-06-20T05:23:16.718Z,24.90
2018-06-20T05:25:46.101Z,24.96
2018-06-20T05:28:14.656Z,25.01
2018-06-20T05:30:47.971Z,25.06
2018-06-20T05:33:17.429Z,25.12
2018-06-20T05:35:45.965Z,25.17
2018-06-20T05:38:16.040Z,25.24
2018-06-20T05:40:44.812Z,25.29
2018-06-20T05:43:14.008Z,25.33
2018-06-20T05:45:42.488Z,25.34
2018-06-20T05:48:11.086Z,25.33
2018-06-20T05:50:39.580Z,25.34
2018-06-20T05:53:08.155Z,25.34
2018-06-20T05:55:36.582Z,25.34
2018-06-20T05:58:05.457Z,25.36
2018-06-20T06:00:34.041Z,25.41
2018-06-20T06:03:02.666Z,25.45
2018-06-20T06:05:31.408Z,25.54
2018-06-20T06:08:05.318Z,25.61
2018-06-20T06:10:34.056Z,25.62
2018-06-20T06:13:02.666Z,25.69
2018-06-20T06:15:31.261Z,25.77
2018-06-20T06:17:59.843Z,25.86
2018-06-20T06:20:28.578Z,25.89
2018-06-20T06:22:57.169Z,25.90
2018-06-20T06:25:25.696Z,25.91
2018-06-20T06:27:54.326Z,25.99
2018-06-20T06:30:22.842Z,26.11
2018-06-20T06:32:51.318Z,26.28
2018-06-20T06:35:19.818Z,26.44
2018-06-20T06:37:48.387Z,26.64
2018-06-20T06:40:17.007Z,26.84
2018-06-20T06:42:45.592Z,27.07
2018-06-20T06:45:14.183Z,27.24
2018-06-20T06:47:42.764Z,27.40
2018-06-20T06:50:11.353Z,27.56
2018-06-20T06:52:39.869Z,27.65
2018-06-20T06:55:08.939Z,27.72
2018-06-20T06:57:37.514Z,27.83
2018-06-20T07:00:06.768Z,28.03
2018-06-20T07:02:35.814Z,28.34
2018-06-20T07:05:04.604Z,28.61
2018-06-20T07:07:33.514Z,28.81
2018-06-20T07:10:02.345Z,28.85
2018-06-20T07:12:31.445Z,28.81
2018-06-20T07:15:00.400Z,28.84
2018-06-20T07:17:30.172Z,28.87
2018-06-20T07:19:59.263Z,29.00
2018-06-20T07:22:29.291Z,29.16
2018-06-20T07:24:57.971Z,29.26
2018-06-20T07:27:26.511Z,29.35
2018-06-20T07:29:55.096Z,29.27
2018-06-20T07:32:23.735Z,29.24
2018-06-20T07:34:52.490Z,29.25
2018-06-20T07:37:21.357Z,29.23
2018-06-20T07:39:50.052Z,29.21
2018-06-20T07:42:18.629Z,29.22
2018-06-20T07:44:47.175Z,29.25
2018-06-20T07:47:15.760Z,29.32
2018-06-20T07:49:44.283Z,29.43
2018-06-20T07:52:13.073Z,29.92
2018-06-20T07:54:41.667Z,30.61
2018-06-20T07:57:10.545Z,31.32
2018-06-20T07:59:44.194Z,32.03
2018-06-20T08:02:29.110Z,32.47
2018-06-20T08:05:02.707Z,32.80
2018-06-20T08:07:36.691Z,33.33
2018-06-20T08:10:10.503Z,34.06
2018-06-20T08:12:44.106Z,34.84
2018-06-20T08:15:17.613Z,35.70
2018-06-20T08:17:51.267Z,36.43
2018-06-20T08:20:22.223Z,36.41
2018-06-20T08:22:50.808Z,35.95
2018-06-20T08:25:19.886Z,35.98
2018-06-20T08:27:48.887Z,36.42
2018-06-20T08:30:18.086Z,37.10
2018-06-20T08:38:51.710Z,38.54
2018-06-20T08:41:20.305Z,38.63
2018-06-20T08:43:49.126Z,38.48
2018-06-20T08:46:17.930Z,38.55
2018-06-20T08:48:46.709Z,38.54
2018-06-20T08:51:15.351Z,38.73
2018-06-20T08:53:44.270Z,38.88
2018-06-20T08:56:13.311Z,38.92
2018-06-20T08:58:42.217Z,39.19
2018-06-20T09:01:15.032Z,39.64
2018-06-20T09:03:44.606Z,39.58
2018-06-20T09:06:19.102Z,39.05
2018-06-20T09:08:53.123Z,38.27
2018-06-20T09:13:27.834Z,37.83
2018-06-20T09:16:01.574Z,37.61
2018-06-20T09:18:35.319Z,38.30
2018-06-20T09:21:03.905Z,38.74
2018-06-20T09:23:32.505Z,38.93
2018-06-20T09:26:01.089Z,38.82
2018-06-20T09:28:29.762Z,38.42
2018-06-20T09:30:58.511Z,38.30
2018-06-20T09:33:27.166Z,38.27
2018-06-20T09:35:55.890Z,38.34
2018-06-20T09:38:24.604Z,38.64
2018-06-20T09:40:53.228Z,39.35
2018-06-20T09:43:21.725Z,39.50
2018-06-20T09:45:56.763Z,39.41
2018-06-20T09:48:25.389Z,38.67
2018-06-20T09:50:56.675Z,38.73
2018-06-20T09:53:25.594Z,39.34
2018-06-20T09:55:54.635Z,40.12
2018-06-20T09:58:23.190Z,40.74
2018-06-20T10:00:57.059Z,41.31
2018-06-20T10:03:30.950Z,40.98
2018-06-20T10:06:04.734Z,40.52
2018-06-20T10:08:38.603Z,41.25
2018-06-20T10:11:12.598Z,41.95
2018-06-20T10:13:44.247Z,42.59
2018-06-20T10:16:13.013Z,42.09
2018-06-20T10:18:41.641Z,41.63
2018-06-20T10:21:10.501Z,40.91
2018-06-20T10:23:39.462Z,40.35
2018-06-20T10:26:08.048Z,39.73
2018-06-20T10:28:36.621Z,39.01
2018-06-20T10:31:05.299Z,38.92
2018-06-20T10:33:35.228Z,38.92
2018-06-20T10:36:03.888Z,40.21
2018-06-20T10:38:32.325Z,41.14
2018-06-20T10:41:01.377Z,40.92
2018-06-20T10:43:30.288Z,41.40
2018-06-20T10:46:04.282Z,42.27
2018-06-20T10:48:33.088Z,43.12
2018-06-20T10:51:01.747Z,44.38
2018-06-20T10:53:30.468Z,44.95
2018-06-20T10:55:59.131Z,44.17
2018-06-20T10:58:32.957Z,44.02
2018-06-20T11:01:07.571Z,43.67
2018-06-20T11:03:41.553Z,43.49
2018-06-20T11:06:15.473Z,44.38
2018-06-20T11:08:49.251Z,45.37
2018-06-20T11:11:23.260Z,46.28
2018-06-20T11:13:52.039Z,46.95
2018-06-20T11:16:20.650Z,47.28
2018-06-20T11:18:52.276Z,47.35
2018-06-20T11:21:24.845Z,47.09
2018-06-20T11:23:53.599Z,46.42
2018-06-20T11:26:22.229Z,45.57
2018-06-20T11:28:50.818Z,44.42
2018-06-20T11:31:19.541Z,43.13
2018-06-20T11:33:48.562Z,41.95
2018-06-20T11:36:17.585Z,40.98
2018-06-20T11:38:46.175Z,40.22
2018-06-20T11:41:15.113Z,39.63
2018-06-20T11:43:43.995Z,39.12
2018-06-20T11:46:18.111Z,38.71
2018-06-20T11:48:46.605Z,38.34
2018-06-20T11:51:15.156Z,37.98
2018-06-20T11:53:43.791Z,37.46
2018-06-20T11:56:12.496Z,37.20
2018-06-20T11:58:46.280Z,36.97
2018-06-20T12:01:20.227Z,36.79
2018-06-20T12:03:54.145Z,36.62
2018-06-20T12:06:27.970Z,36.52
2018-06-20T12:09:01.553Z,36.54
2018-06-20T12:11:35.309Z,36.48
2018-06-20T12:14:08.985Z,36.34
2018-06-20T12:16:38.170Z,36.22
2018-06-20T12:19:11.798Z,36.10
2018-06-20T12:21:45.483Z,35.97
2018-06-20T12:24:19.167Z,35.82
2018-06-20T12:26:52.828Z,35.72
2018-06-20T12:29:26.690Z,35.68
2018-06-20T12:32:00.606Z,35.64
2018-06-20T12:34:34.434Z,35.61
2018-06-20T12:37:07.992Z,35.64
2018-06-20T12:39:35.620Z,35.15
2018-06-20T12:42:09.525Z,35.67
2018-06-20T12:44:57.842Z,35.56
2018-06-20T12:47:29.970Z,35.47
2018-06-20T12:50:00.806Z,35.44
2018-06-20T12:52:29.489Z,35.40
2018-06-20T12:54:58.074Z,35.39
2018-06-20T12:57:26.753Z,35.34
2018-06-20T12:59:55.260Z,35.33
2018-06-20T13:02:23.752Z,35.39
2018-06-20T13:04:52.481Z,35.39
2018-06-20T13:07:21.194Z,35.35
2018-06-20T13:09:49.638Z,35.36
2018-06-20T13:12:19.198Z,35.31
2018-06-20T13:14:47.728Z,35.26
2018-06-20T13:17:16.254Z,35.28
2018-06-20T13:19:44.818Z,35.29
2018-06-20T13:22:13.735Z,35.23
2018-06-20T13:24:42.180Z,35.04
2018-06-20T13:27:15.244Z,34.84
2018-06-20T13:29:44.078Z,34.80
2018-06-20T13:32:17.842Z,34.71
2018-06-20T13:34:51.501Z,34.56
2018-06-20T13:37:25.196Z,34.40
2018-06-20T13:39:58.932Z,34.39
2018-06-20T13:42:32.710Z,34.46
2018-06-20T13:45:06.568Z,34.48
2018-06-20T13:47:40.309Z,34.35
2018-06-20T13:50:08.926Z,34.20
2018-06-20T13:52:37.466Z,34.04
2018-06-20T13:55:06.203Z,33.90
2018-06-20T13:57:34.651Z,33.80
2018-06-20T14:00:03.281Z,33.82
2018-06-20T14:02:31.865Z,33.83
2018-06-20T14:05:00.768Z,33.76
2018-06-20T14:07:29.622Z,33.74
2018-06-20T14:09:58.139Z,33.80
2018-06-20T14:12:26.928Z,33.84
2018-06-20T14:14:55.839Z,33.82
2018-06-20T14:17:24.457Z,33.77
2018-06-20T14:19:58.262Z,33.71
2018-06-20T14:22:27.145Z,33.59
2018-06-20T14:24:55.613Z,33.35
2018-06-20T14:27:24.496Z,33.13
2018-06-20T14:29:53.156Z,33.02
2018-06-20T14:32:27.075Z,33.04
2018-06-20T14:35:00.928Z,33.13
2018-06-20T14:37:34.612Z,33.23
2018-06-20T14:40:08.379Z,33.36
2018-06-20T14:42:42.391Z,33.45
2018-06-20T14:45:16.088Z,33.49
2018-06-20T14:47:44.647Z,33.42
2018-06-20T14:50:13.150Z,33.37
2018-06-20T14:52:41.842Z,33.41
2018-06-20T14:55:10.535Z,33.42
2018-06-20T14:57:39.069Z,33.41
2018-06-20T15:00:07.917Z,33.33
2018-06-20T15:02:36.666Z,33.24
2018-06-20T15:05:05.234Z,33.24
2018-06-20T15:07:33.806Z,33.26
2018-06-20T15:10:02.415Z,33.24
2018-06-20T15:12:31.022Z,33.25
2018-06-20T15:14:59.556Z,33.23
2018-06-20T15:17:29.322Z,33.24
2018-06-20T15:19:58.137Z,33.22
2018-06-20T15:22:26.904Z,33.24
2018-06-20T15:24:55.441Z,33.26
2018-06-20T15:29:30.045Z,33.26
2018-06-20T15:32:03.697Z,33.16
2018-06-20T15:34:37.436Z,33.13
2018-06-20T15:37:10.999Z,33.11
2018-06-20T15:39:39.575Z,33.10
2018-06-20T15:42:08.127Z,33.13
2018-06-20T15:44:36.721Z,33.14
2018-06-20T15:47:05.293Z,33.13
2018-06-20T15:49:34.038Z,33.09
2018-06-20T15:52:02.561Z,33.06
2018-06-20T15:54:31.101Z,32.99
2018-06-20T15:56:59.636Z,32.94
2018-06-20T15:59:28.527Z,32.86
2018-06-20T16:01:57.117Z,32.79
2018-06-20T16:04:25.672Z,32.78
2018-06-20T16:06:54.188Z,32.72
2018-06-20T16:09:27.984Z,32.66
2018-06-20T16:11:57.617Z,32.64
2018-06-20T16:14:26.143Z,32.62
2018-06-20T16:16:54.710Z,32.57
2018-06-20T16:19:28.444Z,32.51
2018-06-20T16:24:08.093Z,32.48
2018-06-20T16:26:41.773Z,32.40
2018-06-20T16:31:20.504Z,32.39
2018-06-20T16:33:48.988Z,32.36
2018-06-20T16:36:17.511Z,32.34
2018-06-20T16:38:46.012Z,32.31
2018-06-20T16:41:14.523Z,32.30
2018-06-20T16:43:43.009Z,32.28
2018-06-20T16:46:11.492Z,32.24
2018-06-20T16:48:40.171Z,32.21
2018-06-20T16:51:08.990Z,32.18
2018-06-20T16:53:38.036Z,32.12
2018-06-20T16:56:06.651Z,32.08
2018-06-20T16:58:35.316Z,32.09
2018-06-20T17:01:08.953Z,32.07
2018-06-20T17:03:37.673Z,32.04
2018-06-20T17:06:06.556Z,31.98
2018-06-20T17:08:35.395Z,31.95
2018-06-20T17:11:04.151Z,31.89
2018-06-20T17:13:37.994Z,31.84
2018-06-20T17:16:11.659Z,31.79
2018-06-20T17:18:45.408Z,31.77
2018-06-20T17:21:19.313Z,31.75
2018-06-20T17:23:53.140Z,31.72
2018-06-20T17:26:27.769Z,31.72
2018-06-20T17:28:56.459Z,31.70
2018-06-20T17:31:25.051Z,31.68
2018-06-20T17:36:28.451Z,31.63
2018-06-20T17:38:56.948Z,31.59
2018-06-20T17:41:25.818Z,31.57
2018-06-20T17:43:54.300Z,31.53
2018-06-20T17:46:22.869Z,31.52
2018-06-20T17:48:51.818Z,31.51
2018-06-20T17:51:20.379Z,31.49
2018-06-20T17:53:48.936Z,31.45
2018-06-20T17:56:17.889Z,31.40
2018-06-20T17:58:46.469Z,31.34
2018-06-20T18:01:15.057Z,31.28
2018-06-20T18:03:43.614Z,31.24
2018-06-20T18:06:17.241Z,31.17
2018-06-20T18:08:51.012Z,31.13
2018-06-20T18:11:24.696Z,31.10
2018-06-20T18:13:58.382Z,31.06
2018-06-20T18:16:32.075Z,31.02
2018-06-20T18:19:00.525Z,30.98
2018-06-20T18:21:29.044Z,30.94
2018-06-20T18:23:57.867Z,30.89
2018-06-20T18:26:26.439Z,30.82
2018-06-20T18:28:54.974Z,30.80
2018-06-20T18:31:23.526Z,30.74
2018-06-20T18:33:52.590Z,30.70
2018-06-20T18:36:21.387Z,30.68
2018-06-20T18:38:50.016Z,30.65
2018-06-20T18:41:18.599Z,30.60
2018-06-20T18:43:47.216Z,30.58
2018-06-20T18:46:15.729Z,30.57
2018-06-20T18:48:44.274Z,30.55
2018-06-20T18:51:13.109Z,30.52
2018-06-20T18:53:41.780Z,30.50
2018-06-20T18:56:10.475Z,30.46
2018-06-20T18:58:44.392Z,30.43
2018-06-20T19:01:18.234Z,30.40
2018-06-20T19:05:53.113Z,30.38
2018-06-20T19:08:26.980Z,30.32
2018-06-20T19:10:55.454Z,30.28
2018-06-20T19:13:24.046Z,30.24
2018-06-20T19:15:52.558Z,30.19
2018-06-20T19:18:21.089Z,30.15
2018-06-20T19:20:49.762Z,30.11
2018-06-20T19:23:18.854Z,30.05
2018-06-20T19:25:47.664Z,30.01
2018-06-20T19:28:16.254Z,29.95
2018-06-20T19:30:45.059Z,29.90
2018-06-20T19:33:13.732Z,29.82
2018-06-20T19:35:42.443Z,29.75
2018-06-20T19:38:11.072Z,29.66
2018-06-20T19:40:39.638Z,29.60
2018-06-20T19:43:08.279Z,29.52
2018-06-20T19:45:37.013Z,29.45
2018-06-20T19:48:05.542Z,29.39
2018-06-20T19:50:34.271Z,29.33
2018-06-20T19:53:02.864Z,29.27
2018-06-20T19:55:31.450Z,29.20
2018-06-20T19:58:00.050Z,29.13
2018-06-20T20:00:28.802Z,29.07
2018-06-20T20:02:57.478Z,29.02
2018-06-20T20:05:29.563Z,28.94
2018-06-20T20:08:05.577Z,28.86
2018-06-20T20:10:34.300Z,28.79
2018-06-20T20:13:03.003Z,28.74
2018-06-20T20:15:31.832Z,28.65
2018-06-20T20:18:00.541Z,28.59
2018-06-20T20:20:29.235Z,28.52
2018-06-20T20:22:57.862Z,28.45
2018-06-20T20:25:26.420Z,28.37
2018-06-20T20:27:55.011Z,28.28
2018-06-20T20:30:23.582Z,28.19
2018-06-20T20:32:52.364Z,28.12
2018-06-20T20:35:21.508Z,28.04
2018-06-20T20:37:50.192Z,27.96
2018-06-20T20:40:18.885Z,27.88
2018-06-20T20:42:47.587Z,27.80
2018-06-20T20:45:16.215Z,27.72
2018-06-20T20:47:44.845Z,27.63
2018-06-20T20:50:13.383Z,27.55
2018-06-20T20:52:41.970Z,27.49
2018-06-20T20:55:10.624Z,27.42
2018-06-20T20:57:39.536Z,27.34
2018-06-20T21:00:08.378Z,27.27
2018-06-20T21:02:37.119Z,27.21
2018-06-20T21:05:05.865Z,27.13
2018-06-20T21:07:34.642Z,27.08
2018-06-20T21:10:03.198Z,27.02
2018-06-20T21:12:32.079Z,26.96
2018-06-20T21:15:00.795Z,26.91
2018-06-20T21:17:29.440Z,26.85
2018-06-20T21:19:58.191Z,26.80
2018-06-20T21:22:26.958Z,26.76
2018-06-20T21:24:55.705Z,26.72
2018-06-20T21:27:24.287Z,26.66
2018-06-20T21:29:53.139Z,26.61
2018-06-20T21:32:21.893Z,26.58
2018-06-20T21:34:51.108Z,26.56
2018-06-20T21:37:19.913Z,26.50
2018-06-20T21:39:48.521Z,26.44
2018-06-20T21:42:17.276Z,26.41
2018-06-20T21:44:45.916Z,26.36
2018-06-20T21:47:14.479Z,26.29
2018-06-20T21:49:43.039Z,26.25
2018-06-20T21:52:11.639Z,26.18
2018-06-20T21:54:40.221Z,26.16
2018-06-20T21:57:08.818Z,26.10
2018-06-20T21:59:37.377Z,26.06
2018-06-20T22:02:05.980Z,26.02
2018-06-20T22:04:34.550Z,25.99
2018-06-20T22:07:03.095Z,25.98
2018-06-20T22:09:31.633Z,25.97
2018-06-20T22:12:00.232Z,25.94
2018-06-20T22:14:28.828Z,25.91
2018-06-20T22:16:57.335Z,25.87
2018-06-20T22:19:25.960Z,25.84
2018-06-20T22:21:54.518Z,25.80
2018-06-20T22:24:23.040Z,25.74
2018-06-20T22:26:51.800Z,25.71
2018-06-20T22:29:20.260Z,25.67
2018-06-20T22:31:48.781Z,25.62
2018-06-20T22:34:17.287Z,25.58
2018-06-20T22:36:45.839Z,25.55
2018-06-20T22:39:14.304Z,25.50
2018-06-20T22:41:42.862Z,25.46
2018-06-20T22:44:11.316Z,25.42
2018-06-20T22:46:39.786Z,25.40
2018-06-20T22:49:08.509Z,25.35
2018-06-20T22:51:37.132Z,25.30
2018-06-20T22:54:05.644Z,25.27
2018-06-20T22:56:34.038Z,25.23
2018-06-20T22:59:02.509Z,25.19
2018-06-20T23:01:31.036Z,25.14
2018-06-20T23:03:59.538Z,25.11
2018-06-20T23:06:28.054Z,25.08
2018-06-20T23:08:56.557Z,25.03
2018-06-20T23:11:25.104Z,25.00
2018-06-20T23:13:53.627Z,24.96
2018-06-20T23:16:22.112Z,24.92
2018-06-20T23:18:50.626Z,24.89
2018-06-20T23:21:19.149Z,24.86
2018-06-20T23:23:47.644Z,24.84
2018-06-20T23:26:16.068Z,24.83
2018-06-20T23:28:44.662Z,24.85
2018-06-20T23:31:13.131Z,24.87
2018-06-20T23:33:41.704Z,24.92
2018-06-20T23:36:10.157Z,24.98
2018-06-20T23:38:38.645Z,25.01
2018-06-20T23:41:07.096Z,25.05
2018-06-20T23:43:35.642Z,25.06
2018-06-20T23:46:04.061Z,25.08
2018-06-20T23:48:34.495Z,25.07
2018-06-20T23:51:02.960Z,25.04
2018-06-20T23:53:31.517Z,25.02
2018-06-20T23:55:59.977Z,25.03
2018-06-20T23:58:29.386Z,25.03
